sensor_id;sensor_type;location;lat;lon;timestamp;P1;durP1;ratioP1;P2;durP2;ratioP2
34711;SDS011;20941;42.408;25.634;2023-05-10T00:00:52;11.50;;;5.93;;
34711;SDS011;20941;42.408;25.634;2023-05-10T00:03:17;9.35;;;5.85;;
34711;SDS011;20941;42.408;25.634;2023-05-10T00:05:43;7.45;;;5.30;;
34711;SDS011;20941;42.408;25.634;2023-05-10T00:08:08;9.75;;;5.82;;
34711;SDS011;20941;42.408;25.634;2023-05-10T00:10:34;8.90;;;5.90;;
34711;SDS011;20941;42.408;25.634;2023-05-10T00:12:59;10.82;;;5.95;;
34711;SDS011;20941;42.408;25.634;2023-05-10T00:15:26;10.77;;;5.95;;
34711;SDS011;20941;42.408;25.634;2023-05-10T00:17:53;9.13;;;6.07;;
34711;SDS011;20941;42.408;25.634;2023-05-10T00:20:18;12.32;;;8.27;;
34711;SDS011;20941;42.408;25.634;2023-05-10T00:22:45;11.65;;;7.55;;
34711;SDS011;20941;42.408;25.634;2023-05-10T00:25:11;11.90;;;6.93;;
34711;SDS011;20941;42.408;25.634;2023-05-10T00:27:36;15.13;;;7.38;;
34711;SDS011;20941;42.408;25.634;2023-05-10T00:30:01;12.93;;;8.02;;
34711;SDS011;20941;42.408;25.634;2023-05-10T00:32:27;16.17;;;9.50;;
34711;SDS011;20941;42.408;25.634;2023-05-10T00:34:52;14.75;;;9.50;;
34711;SDS011;20941;42.408;25.634;2023-05-10T00:37:17;13.82;;;8.65;;
34711;SDS011;20941;42.408;25.634;2023-05-10T00:39:43;8.85;;;7.15;;
34711;SDS011;20941;42.408;25.634;2023-05-10T00:42:08;10.25;;;7.28;;
34711;SDS011;20941;42.408;25.634;2023-05-10T00:44:33;14.63;;;9.23;;
34711;SDS011;20941;42.408;25.634;2023-05-10T00:46:59;12.07;;;9.68;;
34711;SDS011;20941;42.408;25.634;2023-05-10T00:49:24;11.80;;;9.13;;
34711;SDS011;20941;42.408;25.634;2023-05-10T00:51:50;11.63;;;6.78;;
34711;SDS011;20941;42.408;25.634;2023-05-10T00:54:15;10.13;;;7.00;;
34711;SDS011;20941;42.408;25.634;2023-05-10T00:56:41;11.80;;;8.30;;
34711;SDS011;20941;42.408;25.634;2023-05-10T00:59:09;11.75;;;8.18;;
34711;SDS011;20941;42.408;25.634;2023-05-10T01:01:35;11.68;;;7.43;;
34711;SDS011;20941;42.408;25.634;2023-05-10T01:04:00;13.95;;;7.47;;
34711;SDS011;20941;42.408;25.634;2023-05-10T01:06:26;10.00;;;6.70;;
34711;SDS011;20941;42.408;25.634;2023-05-10T01:08:52;12.38;;;5.97;;
34711;SDS011;20941;42.408;25.634;2023-05-10T01:11:18;10.45;;;5.43;;
34711;SDS011;20941;42.408;25.634;2023-05-10T01:13:43;7.80;;;5.57;;
34711;SDS011;20941;42.408;25.634;2023-05-10T01:16:12;10.07;;;5.50;;
34711;SDS011;20941;42.408;25.634;2023-05-10T01:18:38;11.02;;;5.57;;
34711;SDS011;20941;42.408;25.634;2023-05-10T01:28:42;8.70;;;5.10;;
34711;SDS011;20941;42.408;25.634;2023-05-10T01:33:39;11.65;;;5.45;;
34711;SDS011;20941;42.408;25.634;2023-05-10T01:38:47;7.18;;;4.65;;
34711;SDS011;20941;42.408;25.634;2023-05-10T01:41:19;9.05;;;5.25;;
34711;SDS011;20941;42.408;25.634;2023-05-10T01:44:02;10.48;;;5.25;;
34711;SDS011;20941;42.408;25.634;2023-05-10T01:46:31;9.90;;;5.32;;
34711;SDS011;20941;42.408;25.634;2023-05-10T01:48:58;7.10;;;4.85;;
34711;SDS011;20941;42.408;25.634;2023-05-10T01:51:26;6.57;;;4.43;;
34711;SDS011;20941;42.408;25.634;2023-05-10T01:53:54;8.77;;;5.20;;
34711;SDS011;20941;42.408;25.634;2023-05-10T01:56:22;8.80;;;4.60;;
34711;SDS011;20941;42.408;25.634;2023-05-10T01:58:50;12.65;;;5.47;;
34711;SDS011;20941;42.408;25.634;2023-05-10T02:01:16;8.45;;;5.63;;
34711;SDS011;20941;42.408;25.634;2023-05-10T02:03:44;9.88;;;4.97;;
34711;SDS011;20941;42.408;25.634;2023-05-10T02:06:10;13.45;;;5.30;;
34711;SDS011;20941;42.408;25.634;2023-05-10T02:08:35;12.18;;;5.32;;
34711;SDS011;20941;42.408;25.634;2023-05-10T02:11:02;9.70;;;5.72;;
34711;SDS011;20941;42.408;25.634;2023-05-10T02:13:29;10.07;;;5.22;;
34711;SDS011;20941;42.408;25.634;2023-05-10T02:15:56;6.68;;;4.93;;
34711;SDS011;20941;42.408;25.634;2023-05-10T02:18:22;10.43;;;5.05;;
34711;SDS011;20941;42.408;25.634;2023-05-10T02:20:48;9.90;;;4.72;;
34711;SDS011;20941;42.408;25.634;2023-05-10T02:23:15;11.63;;;5.20;;
34711;SDS011;20941;42.408;25.634;2023-05-10T02:25:42;9.95;;;5.57;;
34711;SDS011;20941;42.408;25.634;2023-05-10T02:28:08;8.70;;;5.28;;
34711;SDS011;20941;42.408;25.634;2023-05-10T02:30:35;8.40;;;5.40;;
34711;SDS011;20941;42.408;25.634;2023-05-10T02:33:01;9.02;;;5.05;;
34711;SDS011;20941;42.408;25.634;2023-05-10T02:35:28;6.63;;;5.25;;
34711;SDS011;20941;42.408;25.634;2023-05-10T02:37:53;12.77;;;5.18;;
34711;SDS011;20941;42.408;25.634;2023-05-10T02:40:19;11.13;;;5.00;;
34711;SDS011;20941;42.408;25.634;2023-05-10T02:42:47;7.80;;;4.90;;
34711;SDS011;20941;42.408;25.634;2023-05-10T02:45:15;12.80;;;5.95;;
34711;SDS011;20941;42.408;25.634;2023-05-10T02:47:42;5.45;;;4.38;;
34711;SDS011;20941;42.408;25.634;2023-05-10T02:50:08;15.07;;;4.82;;
34711;SDS011;20941;42.408;25.634;2023-05-10T02:52:42;8.32;;;5.43;;
34711;SDS011;20941;42.408;25.634;2023-05-10T02:57:34;8.93;;;5.20;;
34711;SDS011;20941;42.408;25.634;2023-05-10T03:00:03;7.55;;;5.32;;
34711;SDS011;20941;42.408;25.634;2023-05-10T03:02:28;7.32;;;5.53;;
34711;SDS011;20941;42.408;25.634;2023-05-10T03:04:55;9.40;;;5.30;;
34711;SDS011;20941;42.408;25.634;2023-05-10T03:07:21;7.30;;;5.10;;
34711;SDS011;20941;42.408;25.634;2023-05-10T03:09:47;6.88;;;5.43;;
34711;SDS011;20941;42.408;25.634;2023-05-10T03:12:19;10.32;;;5.65;;
34711;SDS011;20941;42.408;25.634;2023-05-10T03:17:31;9.77;;;5.50;;
34711;SDS011;20941;42.408;25.634;2023-05-10T03:20:03;7.95;;;5.05;;
34711;SDS011;20941;42.408;25.634;2023-05-10T03:22:36;10.63;;;5.47;;
34711;SDS011;20941;42.408;25.634;2023-05-10T03:25:04;11.00;;;5.50;;
34711;SDS011;20941;42.408;25.634;2023-05-10T03:27:30;10.18;;;5.68;;
34711;SDS011;20941;42.408;25.634;2023-05-10T03:29:56;10.70;;;5.00;;
34711;SDS011;20941;42.408;25.634;2023-05-10T03:32:22;9.65;;;5.53;;
34711;SDS011;20941;42.408;25.634;2023-05-10T03:34:48;12.48;;;5.03;;
34711;SDS011;20941;42.408;25.634;2023-05-10T03:37:13;7.85;;;5.30;;
34711;SDS011;20941;42.408;25.634;2023-05-10T03:39:38;11.27;;;5.03;;
34711;SDS011;20941;42.408;25.634;2023-05-10T03:42:04;11.25;;;5.45;;
34711;SDS011;20941;42.408;25.634;2023-05-10T03:44:29;6.30;;;5.22;;
34711;SDS011;20941;42.408;25.634;2023-05-10T03:46:55;8.15;;;5.55;;
34711;SDS011;20941;42.408;25.634;2023-05-10T03:49:22;7.97;;;5.03;;
34711;SDS011;20941;42.408;25.634;2023-05-10T03:51:47;14.30;;;6.07;;
34711;SDS011;20941;42.408;25.634;2023-05-10T03:54:12;10.02;;;5.18;;
34711;SDS011;20941;42.408;25.634;2023-05-10T03:56:38;9.75;;;5.18;;
34711;SDS011;20941;42.408;25.634;2023-05-10T03:59:03;10.50;;;5.50;;
34711;SDS011;20941;42.408;25.634;2023-05-10T04:01:32;9.85;;;5.68;;
34711;SDS011;20941;42.408;25.634;2023-05-10T04:03:57;18.00;;;5.97;;
34711;SDS011;20941;42.408;25.634;2023-05-10T04:06:23;12.52;;;5.80;;
34711;SDS011;20941;42.408;25.634;2023-05-10T04:08:48;9.02;;;5.35;;
34711;SDS011;20941;42.408;25.634;2023-05-10T04:11:13;14.77;;;5.40;;
34711;SDS011;20941;42.408;25.634;2023-05-10T04:13:39;7.55;;;5.28;;
34711;SDS011;20941;42.408;25.634;2023-05-10T04:16:04;9.50;;;4.90;;
34711;SDS011;20941;42.408;25.634;2023-05-10T04:18:30;9.95;;;4.35;;
34711;SDS011;20941;42.408;25.634;2023-05-10T04:20:56;14.18;;;5.70;;
34711;SDS011;20941;42.408;25.634;2023-05-10T04:23:21;9.18;;;5.03;;
34711;SDS011;20941;42.408;25.634;2023-05-10T04:25:47;12.75;;;5.30;;
34711;SDS011;20941;42.408;25.634;2023-05-10T04:28:12;7.00;;;4.68;;
34711;SDS011;20941;42.408;25.634;2023-05-10T04:30:38;12.80;;;5.43;;
34711;SDS011;20941;42.408;25.634;2023-05-10T04:33:03;7.90;;;4.57;;
34711;SDS011;20941;42.408;25.634;2023-05-10T04:35:29;6.53;;;4.45;;
34711;SDS011;20941;42.408;25.634;2023-05-10T04:37:54;11.07;;;5.35;;
34711;SDS011;20941;42.408;25.634;2023-05-10T04:40:20;14.25;;;4.95;;
34711;SDS011;20941;42.408;25.634;2023-05-10T04:42:45;16.73;;;5.60;;
34711;SDS011;20941;42.408;25.634;2023-05-10T04:45:11;16.42;;;5.30;;
34711;SDS011;20941;42.408;25.634;2023-05-10T04:47:36;12.20;;;5.03;;
34711;SDS011;20941;42.408;25.634;2023-05-10T04:50:04;10.18;;;5.57;;
34711;SDS011;20941;42.408;25.634;2023-05-10T04:52:30;11.60;;;5.63;;
34711;SDS011;20941;42.408;25.634;2023-05-10T04:54:56;16.95;;;5.78;;
34711;SDS011;20941;42.408;25.634;2023-05-10T04:57:21;11.18;;;5.53;;
34711;SDS011;20941;42.408;25.634;2023-05-10T04:59:47;14.95;;;4.97;;
34711;SDS011;20941;42.408;25.634;2023-05-10T05:02:12;12.75;;;4.50;;
34711;SDS011;20941;42.408;25.634;2023-05-10T05:04:37;7.35;;;4.50;;
34711;SDS011;20941;42.408;25.634;2023-05-10T05:07:03;9.63;;;4.90;;
34711;SDS011;20941;42.408;25.634;2023-05-10T05:09:28;11.90;;;4.97;;
34711;SDS011;20941;42.408;25.634;2023-05-10T05:11:53;8.70;;;4.70;;
34711;SDS011;20941;42.408;25.634;2023-05-10T05:14:19;8.02;;;4.45;;
34711;SDS011;20941;42.408;25.634;2023-05-10T05:16:46;9.32;;;4.22;;
34711;SDS011;20941;42.408;25.634;2023-05-10T05:19:11;14.27;;;5.35;;
34711;SDS011;20941;42.408;25.634;2023-05-10T05:21:36;6.40;;;4.40;;
34711;SDS011;20941;42.408;25.634;2023-05-10T05:24:02;15.43;;;5.35;;
34711;SDS011;20941;42.408;25.634;2023-05-10T05:26:27;10.13;;;4.70;;
34711;SDS011;20941;42.408;25.634;2023-05-10T05:28:53;8.25;;;5.35;;
34711;SDS011;20941;42.408;25.634;2023-05-10T05:31:19;13.73;;;5.10;;
34711;SDS011;20941;42.408;25.634;2023-05-10T05:33:45;7.68;;;4.88;;
34711;SDS011;20941;42.408;25.634;2023-05-10T05:36:10;7.68;;;3.90;;
34711;SDS011;20941;42.408;25.634;2023-05-10T05:38:36;10.38;;;5.45;;
34711;SDS011;20941;42.408;25.634;2023-05-10T05:41:01;7.63;;;5.03;;
34711;SDS011;20941;42.408;25.634;2023-05-10T05:43:27;7.30;;;4.30;;
34711;SDS011;20941;42.408;25.634;2023-05-10T05:45:53;11.82;;;4.63;;
34711;SDS011;20941;42.408;25.634;2023-05-10T05:48:19;11.68;;;4.50;;
34711;SDS011;20941;42.408;25.634;2023-05-10T05:50:44;14.52;;;5.40;;
34711;SDS011;20941;42.408;25.634;2023-05-10T05:53:10;14.00;;;6.15;;
34711;SDS011;20941;42.408;25.634;2023-05-10T05:55:36;9.05;;;4.55;;
34711;SDS011;20941;42.408;25.634;2023-05-10T05:58:01;10.15;;;4.55;;
34711;SDS011;20941;42.408;25.634;2023-05-10T06:00:26;5.13;;;3.42;;
34711;SDS011;20941;42.408;25.634;2023-05-10T06:02:52;7.78;;;3.10;;
34711;SDS011;20941;42.408;25.634;2023-05-10T06:05:17;6.88;;;3.55;;
34711;SDS011;20941;42.408;25.634;2023-05-10T06:07:43;7.00;;;4.00;;
34711;SDS011;20941;42.408;25.634;2023-05-10T06:10:08;9.35;;;4.50;;
34711;SDS011;20941;42.408;25.634;2023-05-10T06:12:34;15.77;;;4.78;;
34711;SDS011;20941;42.408;25.634;2023-05-10T06:14:59;12.50;;;3.55;;
34711;SDS011;20941;42.408;25.634;2023-05-10T06:17:25;5.53;;;3.35;;
34711;SDS011;20941;42.408;25.634;2023-05-10T06:19:50;9.18;;;4.15;;
34711;SDS011;20941;42.408;25.634;2023-05-10T06:22:15;7.00;;;4.05;;
34711;SDS011;20941;42.408;25.634;2023-05-10T06:24:41;8.20;;;4.15;;
34711;SDS011;20941;42.408;25.634;2023-05-10T06:27:06;13.18;;;4.47;;
34711;SDS011;20941;42.408;25.634;2023-05-10T06:29:32;9.68;;;3.85;;
34711;SDS011;20941;42.408;25.634;2023-05-10T06:31:57;5.78;;;3.97;;
34711;SDS011;20941;42.408;25.634;2023-05-10T06:34:23;9.40;;;3.38;;
34711;SDS011;20941;42.408;25.634;2023-05-10T06:36:49;8.25;;;3.70;;
34711;SDS011;20941;42.408;25.634;2023-05-10T06:39:14;5.85;;;3.33;;
34711;SDS011;20941;42.408;25.634;2023-05-10T06:41:41;11.18;;;3.30;;
34711;SDS011;20941;42.408;25.634;2023-05-10T06:44:06;10.00;;;3.03;;
34711;SDS011;20941;42.408;25.634;2023-05-10T06:46:31;7.72;;;3.47;;
34711;SDS011;20941;42.408;25.634;2023-05-10T06:48:57;5.88;;;2.38;;
34711;SDS011;20941;42.408;25.634;2023-05-10T06:51:22;6.15;;;2.72;;
34711;SDS011;20941;42.408;25.634;2023-05-10T06:53:48;3.63;;;2.65;;
34711;SDS011;20941;42.408;25.634;2023-05-10T06:56:13;10.73;;;3.65;;
34711;SDS011;20941;42.408;25.634;2023-05-10T06:58:39;5.80;;;3.10;;
34711;SDS011;20941;42.408;25.634;2023-05-10T07:01:04;3.95;;;2.80;;
34711;SDS011;20941;42.408;25.634;2023-05-10T07:03:30;3.63;;;2.50;;
34711;SDS011;20941;42.408;25.634;2023-05-10T07:06:04;11.88;;;3.05;;
34711;SDS011;20941;42.408;25.634;2023-05-10T07:08:31;6.35;;;3.40;;
34711;SDS011;20941;42.408;25.634;2023-05-10T07:11:01;7.68;;;3.05;;
34711;SDS011;20941;42.408;25.634;2023-05-10T07:13:26;7.30;;;2.40;;
34711;SDS011;20941;42.408;25.634;2023-05-10T07:15:51;4.05;;;2.67;;
34711;SDS011;20941;42.408;25.634;2023-05-10T07:18:17;7.07;;;2.20;;
34711;SDS011;20941;42.408;25.634;2023-05-10T07:20:42;5.78;;;2.58;;
34711;SDS011;20941;42.408;25.634;2023-05-10T07:23:08;4.47;;;2.58;;
34711;SDS011;20941;42.408;25.634;2023-05-10T07:25:33;8.55;;;3.08;;
34711;SDS011;20941;42.408;25.634;2023-05-10T07:27:58;5.28;;;3.17;;
34711;SDS011;20941;42.408;25.634;2023-05-10T07:30:24;29.48;;;5.63;;
34711;SDS011;20941;42.408;25.634;2023-05-10T07:32:49;9.95;;;3.70;;
34711;SDS011;20941;42.408;25.634;2023-05-10T07:35:14;11.52;;;3.85;;
34711;SDS011;20941;42.408;25.634;2023-05-10T07:37:40;4.35;;;2.10;;
34711;SDS011;20941;42.408;25.634;2023-05-10T07:40:05;6.85;;;2.13;;
34711;SDS011;20941;42.408;25.634;2023-05-10T07:42:31;4.88;;;2.60;;
34711;SDS011;20941;42.408;25.634;2023-05-10T07:44:57;5.38;;;3.05;;
34711;SDS011;20941;42.408;25.634;2023-05-10T07:47:25;6.25;;;2.15;;
34711;SDS011;20941;42.408;25.634;2023-05-10T07:49:51;3.50;;;2.40;;
34711;SDS011;20941;42.408;25.634;2023-05-10T07:52:17;7.47;;;2.90;;
34711;SDS011;20941;42.408;25.634;2023-05-10T07:54:42;3.28;;;2.97;;
34711;SDS011;20941;42.408;25.634;2023-05-10T07:57:12;3.53;;;2.47;;
34711;SDS011;20941;42.408;25.634;2023-05-10T07:59:41;9.57;;;2.70;;
34711;SDS011;20941;42.408;25.634;2023-05-10T08:02:07;6.15;;;2.53;;
34711;SDS011;20941;42.408;25.634;2023-05-10T08:04:32;5.90;;;2.50;;
34711;SDS011;20941;42.408;25.634;2023-05-10T08:06:57;2.72;;;1.98;;
34711;SDS011;20941;42.408;25.634;2023-05-10T08:09:23;3.25;;;2.40;;
34711;SDS011;20941;42.408;25.634;2023-05-10T08:11:49;3.92;;;2.70;;
34711;SDS011;20941;42.408;25.634;2023-05-10T08:14:14;3.67;;;2.40;;
34711;SDS011;20941;42.408;25.634;2023-05-10T08:16:39;2.28;;;2.08;;
34711;SDS011;20941;42.408;25.634;2023-05-10T08:19:06;4.63;;;2.25;;
34711;SDS011;20941;42.408;25.634;2023-05-10T08:21:31;10.38;;;3.75;;
34711;SDS011;20941;42.408;25.634;2023-05-10T08:23:57;6.55;;;2.55;;
34711;SDS011;20941;42.408;25.634;2023-05-10T08:26:23;4.18;;;2.85;;
34711;SDS011;20941;42.408;25.634;2023-05-10T08:28:48;4.80;;;2.90;;
34711;SDS011;20941;42.408;25.634;2023-05-10T08:31:14;3.17;;;2.67;;
34711;SDS011;20941;42.408;25.634;2023-05-10T08:33:39;8.02;;;5.07;;
34711;SDS011;20941;42.408;25.634;2023-05-10T08:36:05;4.85;;;2.83;;
34711;SDS011;20941;42.408;25.634;2023-05-10T08:38:30;4.85;;;2.92;;
34711;SDS011;20941;42.408;25.634;2023-05-10T08:40:56;7.57;;;3.30;;
34711;SDS011;20941;42.408;25.634;2023-05-10T08:43:21;4.45;;;2.70;;
34711;SDS011;20941;42.408;25.634;2023-05-10T08:45:49;6.93;;;2.10;;
34711;SDS011;20941;42.408;25.634;2023-05-10T08:48:14;3.70;;;3.00;;
34711;SDS011;20941;42.408;25.634;2023-05-10T08:50:40;4.35;;;2.90;;
34711;SDS011;20941;42.408;25.634;2023-05-10T08:53:09;6.32;;;2.67;;
34711;SDS011;20941;42.408;25.634;2023-05-10T08:55:35;4.68;;;2.30;;
34711;SDS011;20941;42.408;25.634;2023-05-10T08:58:03;4.00;;;3.00;;
34711;SDS011;20941;42.408;25.634;2023-05-10T09:00:29;3.10;;;2.50;;
34711;SDS011;20941;42.408;25.634;2023-05-10T09:02:54;6.20;;;2.80;;
34711;SDS011;20941;42.408;25.634;2023-05-10T09:05:20;6.18;;;2.58;;
34711;SDS011;20941;42.408;25.634;2023-05-10T09:07:45;5.72;;;2.53;;
34711;SDS011;20941;42.408;25.634;2023-05-10T09:10:11;9.40;;;2.67;;
34711;SDS011;20941;42.408;25.634;2023-05-10T09:12:36;4.60;;;2.50;;
34711;SDS011;20941;42.408;25.634;2023-05-10T09:15:02;7.38;;;2.85;;
34711;SDS011;20941;42.408;25.634;2023-05-10T09:17:28;14.02;;;3.67;;
34711;SDS011;20941;42.408;25.634;2023-05-10T09:19:58;11.73;;;3.60;;
34711;SDS011;20941;42.408;25.634;2023-05-10T09:22:24;11.02;;;3.92;;
34711;SDS011;20941;42.408;25.634;2023-05-10T09:25:03;6.70;;;3.15;;
34711;SDS011;20941;42.408;25.634;2023-05-10T09:27:28;5.10;;;2.65;;
34711;SDS011;20941;42.408;25.634;2023-05-10T09:29:54;4.80;;;2.97;;
34711;SDS011;20941;42.408;25.634;2023-05-10T09:32:20;4.47;;;2.63;;
34711;SDS011;20941;42.408;25.634;2023-05-10T09:34:45;12.05;;;3.35;;
34711;SDS011;20941;42.408;25.634;2023-05-10T09:37:10;8.10;;;3.25;;
34711;SDS011;20941;42.408;25.634;2023-05-10T09:39:36;2.95;;;2.08;;
34711;SDS011;20941;42.408;25.634;2023-05-10T09:42:06;8.68;;;2.60;;
34711;SDS011;20941;42.408;25.634;2023-05-10T09:44:35;6.20;;;2.60;;
34711;SDS011;20941;42.408;25.634;2023-05-10T09:47:01;2.53;;;2.30;;
34711;SDS011;20941;42.408;25.634;2023-05-10T09:49:26;3.67;;;2.30;;
34711;SDS011;20941;42.408;25.634;2023-05-10T09:52:05;4.60;;;2.25;;
34711;SDS011;20941;42.408;25.634;2023-05-10T09:54:32;4.57;;;2.38;;
34711;SDS011;20941;42.408;25.634;2023-05-10T09:56:59;3.72;;;2.75;;
34711;SDS011;20941;42.408;25.634;2023-05-10T09:59:25;10.80;;;3.00;;
34711;SDS011;20941;42.408;25.634;2023-05-10T10:01:52;4.82;;;2.58;;
34711;SDS011;20941;42.408;25.634;2023-05-10T10:04:19;3.72;;;2.10;;
34711;SDS011;20941;42.408;25.634;2023-05-10T10:06:44;2.53;;;2.33;;
34711;SDS011;20941;42.408;25.634;2023-05-10T10:09:10;7.63;;;2.75;;
34711;SDS011;20941;42.408;25.634;2023-05-10T10:11:36;3.17;;;2.20;;
34711;SDS011;20941;42.408;25.634;2023-05-10T10:14:01;3.78;;;2.17;;
34711;SDS011;20941;42.408;25.634;2023-05-10T10:16:28;7.60;;;2.40;;
34711;SDS011;20941;42.408;25.634;2023-05-10T10:18:54;4.95;;;3.05;;
34711;SDS011;20941;42.408;25.634;2023-05-10T10:21:19;4.95;;;2.17;;
34711;SDS011;20941;42.408;25.634;2023-05-10T10:23:45;4.90;;;2.10;;
34711;SDS011;20941;42.408;25.634;2023-05-10T10:26:11;2.13;;;1.80;;
34711;SDS011;20941;42.408;25.634;2023-05-10T10:31:11;3.47;;;1.90;;
34711;SDS011;20941;42.408;25.634;2023-05-10T10:36:22;5.80;;;2.22;;
34711;SDS011;20941;42.408;25.634;2023-05-10T10:49:23;7.78;;;2.40;;
34711;SDS011;20941;42.408;25.634;2023-05-10T10:54:33;3.65;;;2.45;;
34711;SDS011;20941;42.408;25.634;2023-05-10T10:57:13;6.80;;;2.42;;
34711;SDS011;20941;42.408;25.634;2023-05-10T10:59:42;2.95;;;2.22;;
34711;SDS011;20941;42.408;25.634;2023-05-10T11:04:55;2.15;;;2.05;;
34711;SDS011;20941;42.408;25.634;2023-05-10T11:07:21;3.80;;;1.80;;
34711;SDS011;20941;42.408;25.634;2023-05-10T11:09:49;4.68;;;2.42;;
34711;SDS011;20941;42.408;25.634;2023-05-10T11:12:14;2.42;;;1.80;;
34711;SDS011;20941;42.408;25.634;2023-05-10T11:14:40;3.60;;;2.47;;
34711;SDS011;20941;42.408;25.634;2023-05-10T11:17:27;4.35;;;2.00;;
34711;SDS011;20941;42.408;25.634;2023-05-10T11:20:09;2.00;;;1.80;;
34711;SDS011;20941;42.408;25.634;2023-05-10T11:22:50;6.88;;;2.55;;
34711;SDS011;20941;42.408;25.634;2023-05-10T11:25:16;3.08;;;1.92;;
34711;SDS011;20941;42.408;25.634;2023-05-10T11:27:42;2.50;;;1.90;;
34711;SDS011;20941;42.408;25.634;2023-05-10T11:30:07;3.50;;;1.80;;
34711;SDS011;20941;42.408;25.634;2023-05-10T11:32:36;3.67;;;2.25;;
34711;SDS011;20941;42.408;25.634;2023-05-10T11:35:06;3.25;;;1.77;;
34711;SDS011;20941;42.408;25.634;2023-05-10T11:37:31;5.50;;;2.42;;
34711;SDS011;20941;42.408;25.634;2023-05-10T11:39:59;3.28;;;1.80;;
34711;SDS011;20941;42.408;25.634;2023-05-10T11:42:24;2.83;;;1.65;;
34711;SDS011;20941;42.408;25.634;2023-05-10T11:44:50;6.28;;;1.98;;
34711;SDS011;20941;42.408;25.634;2023-05-10T11:47:15;5.63;;;1.90;;
34711;SDS011;20941;42.408;25.634;2023-05-10T11:49:44;7.40;;;2.10;;
34711;SDS011;20941;42.408;25.634;2023-05-10T11:52:09;3.55;;;1.70;;
34711;SDS011;20941;42.408;25.634;2023-05-10T11:54:36;2.58;;;2.08;;
34711;SDS011;20941;42.408;25.634;2023-05-10T11:57:02;3.38;;;1.83;;
34711;SDS011;20941;42.408;25.634;2023-05-10T11:59:27;4.47;;;2.17;;
34711;SDS011;20941;42.408;25.634;2023-05-10T12:01:53;5.80;;;1.70;;
34711;SDS011;20941;42.408;25.634;2023-05-10T12:04:18;7.10;;;2.55;;
34711;SDS011;20941;42.408;25.634;2023-05-10T12:06:44;2.15;;;1.75;;
34711;SDS011;20941;42.408;25.634;2023-05-10T12:09:11;5.20;;;2.10;;
34711;SDS011;20941;42.408;25.634;2023-05-10T12:11:37;8.55;;;2.22;;
34711;SDS011;20941;42.408;25.634;2023-05-10T12:14:04;2.60;;;1.80;;
34711;SDS011;20941;42.408;25.634;2023-05-10T12:16:32;2.22;;;1.92;;
34711;SDS011;20941;42.408;25.634;2023-05-10T12:18:58;2.28;;;1.83;;
34711;SDS011;20941;42.408;25.634;2023-05-10T12:21:23;4.35;;;1.80;;
34711;SDS011;20941;42.408;25.634;2023-05-10T12:23:53;5.95;;;2.00;;
34711;SDS011;20941;42.408;25.634;2023-05-10T12:26:23;4.20;;;2.90;;
34711;SDS011;20941;42.408;25.634;2023-05-10T12:28:49;2.92;;;2.33;;
34711;SDS011;20941;42.408;25.634;2023-05-10T12:31:15;2.17;;;2.05;;
34711;SDS011;20941;42.408;25.634;2023-05-10T12:33:41;1.98;;;1.40;;
34711;SDS011;20941;42.408;25.634;2023-05-10T12:36:08;2.83;;;1.70;;
34711;SDS011;20941;42.408;25.634;2023-05-10T12:38:35;1.75;;;1.55;;
34711;SDS011;20941;42.408;25.634;2023-05-10T12:41:04;1.70;;;1.60;;
34711;SDS011;20941;42.408;25.634;2023-05-10T12:43:30;4.03;;;1.80;;
34711;SDS011;20941;42.408;25.634;2023-05-10T12:45:55;6.57;;;2.72;;
34711;SDS011;20941;42.408;25.634;2023-05-10T12:48:21;1.70;;;1.60;;
34711;SDS011;20941;42.408;25.634;2023-05-10T12:50:47;2.90;;;1.77;;
34711;SDS011;20941;42.408;25.634;2023-05-10T12:53:15;2.67;;;2.33;;
34711;SDS011;20941;42.408;25.634;2023-05-10T12:55:41;3.42;;;1.90;;
34711;SDS011;20941;42.408;25.634;2023-05-10T12:58:06;6.65;;;2.40;;
34711;SDS011;20941;42.408;25.634;2023-05-10T13:00:32;1.77;;;1.67;;
34711;SDS011;20941;42.408;25.634;2023-05-10T13:02:57;3.15;;;2.22;;
34711;SDS011;20941;42.408;25.634;2023-05-10T13:05:22;2.17;;;1.98;;
34711;SDS011;20941;42.408;25.634;2023-05-10T13:07:48;4.90;;;2.00;;
34711;SDS011;20941;42.408;25.634;2023-05-10T13:10:13;4.65;;;1.83;;
34711;SDS011;20941;42.408;25.634;2023-05-10T13:12:39;4.43;;;1.85;;
34711;SDS011;20941;42.408;25.634;2023-05-10T13:15:04;8.48;;;2.50;;
34711;SDS011;20941;42.408;25.634;2023-05-10T13:17:30;1.92;;;1.83;;
34711;SDS011;20941;42.408;25.634;2023-05-10T13:19:55;3.83;;;2.30;;
34711;SDS011;20941;42.408;25.634;2023-05-10T13:22:20;5.38;;;2.45;;
34711;SDS011;20941;42.408;25.634;2023-05-10T13:24:48;2.80;;;2.28;;
34711;SDS011;20941;42.408;25.634;2023-05-10T13:27:13;2.78;;;2.10;;
34711;SDS011;20941;42.408;25.634;2023-05-10T13:29:38;1.80;;;1.70;;
34711;SDS011;20941;42.408;25.634;2023-05-10T13:32:04;4.00;;;2.67;;
34711;SDS011;20941;42.408;25.634;2023-05-10T13:34:29;4.57;;;2.80;;
34711;SDS011;20941;42.408;25.634;2023-05-10T13:36:55;5.95;;;2.13;;
34711;SDS011;20941;42.408;25.634;2023-05-10T13:39:21;4.75;;;2.33;;
34711;SDS011;20941;42.408;25.634;2023-05-10T13:41:46;3.97;;;2.28;;
34711;SDS011;20941;42.408;25.634;2023-05-10T13:44:12;4.95;;;2.30;;
34711;SDS011;20941;42.408;25.634;2023-05-10T13:46:38;6.35;;;2.03;;
34711;SDS011;20941;42.408;25.634;2023-05-10T13:49:04;5.75;;;2.00;;
34711;SDS011;20941;42.408;25.634;2023-05-10T13:51:29;5.57;;;2.25;;
34711;SDS011;20941;42.408;25.634;2023-05-10T13:53:56;4.60;;;2.33;;
34711;SDS011;20941;42.408;25.634;2023-05-10T13:56:41;3.63;;;2.17;;
34711;SDS011;20941;42.408;25.634;2023-05-10T13:59:07;3.03;;;1.88;;
34711;SDS011;20941;42.408;25.634;2023-05-10T14:01:32;5.70;;;2.00;;
34711;SDS011;20941;42.408;25.634;2023-05-10T14:03:58;5.38;;;1.95;;
34711;SDS011;20941;42.408;25.634;2023-05-10T14:06:23;3.15;;;1.48;;
34711;SDS011;20941;42.408;25.634;2023-05-10T14:08:49;11.95;;;2.67;;
34711;SDS011;20941;42.408;25.634;2023-05-10T14:11:14;4.57;;;1.92;;
34711;SDS011;20941;42.408;25.634;2023-05-10T14:13:40;3.08;;;1.80;;
34711;SDS011;20941;42.408;25.634;2023-05-10T14:16:06;1.70;;;1.60;;
34711;SDS011;20941;42.408;25.634;2023-05-10T14:18:31;3.33;;;1.70;;
34711;SDS011;20941;42.408;25.634;2023-05-10T14:20:56;1.92;;;1.70;;
34711;SDS011;20941;42.408;25.634;2023-05-10T14:23:22;14.77;;;4.05;;
34711;SDS011;20941;42.408;25.634;2023-05-10T14:25:54;2.13;;;1.80;;
34711;SDS011;20941;42.408;25.634;2023-05-10T14:28:19;4.28;;;2.05;;
34711;SDS011;20941;42.408;25.634;2023-05-10T14:30:45;1.85;;;1.67;;
34711;SDS011;20941;42.408;25.634;2023-05-10T14:33:11;3.85;;;1.75;;
34711;SDS011;20941;42.408;25.634;2023-05-10T14:35:36;4.40;;;2.15;;
34711;SDS011;20941;42.408;25.634;2023-05-10T14:38:02;4.28;;;2.05;;
34711;SDS011;20941;42.408;25.634;2023-05-10T14:40:31;4.75;;;1.95;;
34711;SDS011;20941;42.408;25.634;2023-05-10T14:42:56;1.85;;;1.75;;
34711;SDS011;20941;42.408;25.634;2023-05-10T14:45:21;3.00;;;2.10;;
34711;SDS011;20941;42.408;25.634;2023-05-10T14:47:48;4.78;;;2.20;;
34711;SDS011;20941;42.408;25.634;2023-05-10T14:50:13;4.68;;;2.40;;
34711;SDS011;20941;42.408;25.634;2023-05-10T14:55:42;4.65;;;2.50;;
34711;SDS011;20941;42.408;25.634;2023-05-10T14:58:07;7.95;;;3.05;;
34711;SDS011;20941;42.408;25.634;2023-05-10T15:00:33;4.47;;;2.97;;
34711;SDS011;20941;42.408;25.634;2023-05-10T15:02:58;5.35;;;3.17;;
34711;SDS011;20941;42.408;25.634;2023-05-10T15:05:23;6.20;;;2.67;;
34711;SDS011;20941;42.408;25.634;2023-05-10T15:07:49;8.18;;;3.22;;